createdAt,value
2018-09-01T00:01:09.646Z,11.03
2018-09-01T00:04:13.326Z,11.05
2018-09-01T00:07:16.939Z,11.04
2018-09-01T00:10:20.580Z,11.09
2018-09-01T00:13:24.276Z,11.00
2018-09-01T00:16:28.021Z,10.92
2018-09-01T00:19:32.332Z,10.89
2018-09-01T00:22:36.022Z,10.81
2018-09-01T00:25:39.911Z,10.74
2018-09-01T00:28:43.552Z,10.87
2018-09-01T00:31:47.159Z,10.96
2018-09-01T00:34:51.435Z,10.96
2018-09-01T00:38:00.349Z,10.89
2018-09-01T00:41:04.054Z,10.95
2018-09-01T00:44:07.799Z,11.10
2018-09-01T00:47:11.594Z,10.96
2018-09-01T00:50:15.288Z,10.89
2018-09-01T00:53:18.964Z,10.88
2018-09-01T00:56:22.545Z,10.83
2018-09-01T00:59:26.371Z,10.79
2018-09-01T01:02:29.984Z,10.77
2018-09-01T01:05:33.647Z,10.72
2018-09-01T01:08:37.294Z,10.70
2018-09-01T01:11:41.014Z,10.73
2018-09-01T01:14:44.720Z,10.73
2018-09-01T01:17:48.408Z,10.71
2018-09-01T01:20:52.063Z,10.73
2018-09-01T01:23:55.918Z,10.70
2018-09-01T01:26:59.589Z,10.65
2018-09-01T01:30:03.623Z,10.71
2018-09-01T01:33:07.448Z,10.68
2018-09-01T01:36:11.107Z,10.65
2018-09-01T01:39:14.788Z,10.63
2018-09-01T01:42:19.263Z,10.62
2018-09-01T01:45:23.008Z,10.59
2018-09-01T01:48:26.724Z,10.62
2018-09-01T01:51:30.312Z,10.56
2018-09-01T01:54:33.929Z,10.57
2018-09-01T01:57:42.848Z,10.55
2018-09-01T02:00:46.475Z,10.49
2018-09-01T02:03:50.184Z,10.51
2018-09-01T02:06:53.939Z,10.45
2018-09-01T02:09:57.586Z,10.43
2018-09-01T02:13:01.248Z,10.41
2018-09-01T02:16:05.049Z,10.52
2018-09-01T02:19:08.762Z,10.49
2018-09-01T02:22:12.400Z,10.58
2018-09-01T02:25:16.240Z,10.64
2018-09-01T02:28:20.003Z,10.64
2018-09-01T02:31:23.623Z,10.51
2018-09-01T02:34:27.313Z,10.55
2018-09-01T02:37:30.947Z,10.40
2018-09-01T02:40:34.574Z,10.58
2018-09-01T02:43:38.310Z,10.51
2018-09-01T02:46:41.953Z,10.71
2018-09-01T02:49:45.583Z,10.64
2018-09-01T02:52:49.430Z,10.57
2018-09-01T02:55:53.199Z,10.54
2018-09-01T02:58:56.737Z,10.70
2018-09-01T03:02:00.403Z,10.72
2018-09-01T03:05:04.011Z,10.85
2018-09-01T03:08:07.904Z,10.89
2018-09-01T03:11:11.690Z,10.78
2018-09-01T03:14:15.386Z,10.68
2018-09-01T03:17:19.108Z,10.73
2018-09-01T03:20:22.764Z,10.66
2018-09-01T03:23:26.513Z,10.79
2018-09-01T03:26:30.231Z,10.85
2018-09-01T03:29:34.226Z,10.90
2018-09-01T03:32:38.003Z,10.97
2018-09-01T03:35:41.663Z,10.90
2018-09-01T03:38:45.354Z,10.84
2018-09-01T03:41:48.983Z,10.84
2018-09-01T03:44:52.594Z,10.74
2018-09-01T03:47:56.393Z,10.66
2018-09-01T03:51:00.074Z,10.82
2018-09-01T03:54:03.801Z,10.68
2018-09-01T03:57:07.471Z,10.58
2018-09-01T04:00:11.184Z,10.50
2018-09-01T04:03:14.801Z,10.60
2018-09-01T04:06:18.464Z,10.70
2018-09-01T04:09:22.142Z,10.55
2018-09-01T04:12:25.798Z,10.43
2018-09-01T04:15:29.509Z,10.43
2018-09-01T04:18:33.221Z,10.35
2018-09-01T04:21:36.893Z,10.35
2018-09-01T04:24:40.544Z,10.48
2018-09-01T04:27:44.274Z,10.34
2018-09-01T04:30:47.895Z,10.36
2018-09-01T04:33:51.555Z,10.23
2018-09-01T04:36:55.331Z,10.22
2018-09-01T04:39:58.941Z,10.24
2018-09-01T04:43:02.651Z,10.22
2018-09-01T04:46:06.420Z,10.18
2018-09-01T04:49:10.033Z,10.22
2018-09-01T04:52:14.006Z,10.30
2018-09-01T04:55:17.795Z,10.36
2018-09-01T04:58:21.692Z,10.45
2018-09-01T05:01:25.670Z,10.60
2018-09-01T05:04:29.700Z,10.68
2018-09-01T05:07:33.460Z,10.79
2018-09-01T05:10:37.573Z,10.93
2018-09-01T05:13:41.282Z,11.01
2018-09-01T05:16:44.997Z,11.11
2018-09-01T05:19:48.777Z,11.40
2018-09-01T05:22:52.419Z,11.58
2018-09-01T05:25:56.092Z,11.73
2018-09-01T05:28:59.790Z,12.01
2018-09-01T05:32:03.525Z,12.25
2018-09-01T05:35:07.274Z,12.43
2018-09-01T05:38:10.940Z,12.67
2018-09-01T05:41:14.648Z,12.86
2018-09-01T05:44:18.303Z,13.20
2018-09-01T05:47:21.920Z,13.36
2018-09-01T05:50:25.602Z,13.73
2018-09-01T05:53:29.429Z,14.75
2018-09-01T05:56:33.006Z,15.41
2018-09-01T05:59:36.658Z,15.53
2018-09-01T06:02:40.356Z,15.49
2018-09-01T06:05:44.213Z,15.34
2018-09-01T06:08:47.778Z,15.14
2018-09-01T06:11:51.431Z,14.84
2018-09-01T06:14:55.202Z,15.02
2018-09-01T06:17:59.120Z,15.60
2018-09-01T06:21:02.826Z,15.90
2018-09-01T06:24:06.885Z,16.25
2018-09-01T06:27:16.713Z,15.97
2018-09-01T06:30:29.302Z,16.25
2018-09-01T06:33:33.037Z,16.55
2018-09-01T06:36:36.610Z,15.97
2018-09-01T06:39:40.364Z,16.12
2018-09-01T06:42:44.222Z,16.74
2018-09-01T06:45:47.937Z,16.90
2018-09-01T06:48:51.980Z,16.75
2018-09-01T06:51:55.770Z,17.29
2018-09-01T06:54:59.534Z,17.05
2018-09-01T06:58:03.198Z,17.05
2018-09-01T07:01:07.348Z,17.28
2018-09-01T07:04:11.026Z,16.99
2018-09-01T07:07:14.958Z,17.14
2018-09-01T07:10:19.089Z,16.95
2018-09-01T07:13:22.757Z,16.78
2018-09-01T07:16:26.505Z,16.78
2018-09-01T07:19:30.178Z,16.39
2018-09-01T07:22:33.831Z,16.06
2018-09-01T07:25:37.509Z,16.20
2018-09-01T07:28:41.264Z,16.75
2018-09-01T07:31:44.893Z,16.85
2018-09-01T07:34:48.775Z,16.74
2018-09-01T07:37:52.450Z,16.65
2018-09-01T07:40:56.278Z,16.73
2018-09-01T07:43:59.999Z,16.61
2018-09-01T07:47:03.671Z,16.56
2018-09-01T07:50:07.398Z,16.59
2018-09-01T07:53:11.128Z,16.87
2018-09-01T07:56:14.900Z,17.40
2018-09-01T07:59:18.529Z,17.59
2018-09-01T08:02:22.261Z,17.23
2018-09-01T08:05:26.000Z,17.44
2018-09-01T08:08:29.745Z,17.74
2018-09-01T08:11:33.418Z,17.11
2018-09-01T08:14:37.111Z,17.28
2018-09-01T08:17:40.813Z,17.19
2018-09-01T08:20:44.379Z,17.61
2018-09-01T08:23:48.124Z,17.43
2018-09-01T08:26:51.828Z,17.60
2018-09-01T08:29:55.488Z,17.79
2018-09-01T08:32:59.142Z,17.69
2018-09-01T08:36:02.843Z,17.40
2018-09-01T08:39:07.916Z,17.24
2018-09-01T08:42:11.713Z,17.01
2018-09-01T08:45:15.428Z,17.09
2018-09-01T08:48:19.157Z,17.23
2018-09-01T08:51:22.930Z,17.47
2018-09-01T08:54:26.568Z,17.48
2018-09-01T08:57:30.235Z,17.23
2018-09-01T09:00:33.962Z,17.23
2018-09-01T09:03:37.734Z,17.44
2018-09-01T09:06:41.492Z,17.20
2018-09-01T09:09:45.208Z,17.26
2018-09-01T09:12:48.968Z,17.69
2018-09-01T09:15:52.645Z,17.91
2018-09-01T09:18:56.447Z,18.02
2018-09-01T09:22:00.276Z,17.73
2018-09-01T09:25:03.919Z,17.64
2018-09-01T09:28:07.864Z,17.55
2018-09-01T09:31:11.558Z,17.96
2018-09-01T09:34:15.210Z,18.46
2018-09-01T09:37:18.929Z,19.13
2018-09-01T09:40:22.651Z,19.51
2018-09-01T09:43:26.443Z,19.03
2018-09-01T09:46:30.058Z,18.91
2018-09-01T09:49:33.714Z,18.42
2018-09-01T09:52:37.374Z,18.51
2018-09-01T09:55:41.180Z,18.59
2018-09-01T09:58:44.982Z,18.29
2018-09-01T10:01:48.779Z,18.84
2018-09-01T10:04:52.484Z,19.14
2018-09-01T10:07:56.189Z,19.26
2018-09-01T10:10:59.860Z,18.97
2018-09-01T10:14:03.583Z,19.04
2018-09-01T10:17:07.368Z,19.06
2018-09-01T10:20:11.059Z,18.84
2018-09-01T10:23:14.733Z,19.02
2018-09-01T10:26:18.418Z,19.72
2018-09-01T10:29:22.089Z,20.03
2018-09-01T10:32:25.909Z,19.57
2018-09-01T10:35:29.658Z,19.69
2018-09-01T10:38:33.427Z,19.51
2018-09-01T10:41:37.154Z,19.27
2018-09-01T10:44:40.851Z,19.07
2018-09-01T10:47:44.649Z,18.80
2018-09-01T10:50:48.308Z,19.06
2018-09-01T10:53:51.967Z,19.30
2018-09-01T10:56:55.673Z,19.89
2018-09-01T10:59:59.425Z,19.88
2018-09-01T11:03:03.138Z,20.26
2018-09-01T11:06:07.043Z,20.34
2018-09-01T11:09:11.326Z,19.94
2018-09-01T11:12:15.069Z,20.32
2018-09-01T11:15:18.785Z,19.73
2018-09-01T11:18:22.421Z,19.50
2018-09-01T11:21:26.190Z,19.59
2018-09-01T11:24:30.049Z,19.36
2018-09-01T11:27:33.824Z,19.73
2018-09-01T11:30:37.609Z,19.77
2018-09-01T11:33:41.547Z,19.90
2018-09-01T11:36:45.321Z,19.29
2018-09-01T11:39:48.993Z,19.08
2018-09-01T11:42:52.703Z,18.97
2018-09-01T11:45:56.524Z,18.93
2018-09-01T11:49:00.270Z,18.95
2018-09-01T11:52:04.253Z,18.96
2018-09-01T11:55:07.940Z,19.06
2018-09-01T11:58:11.710Z,19.47
2018-09-01T12:01:15.451Z,19.87
2018-09-01T12:04:19.264Z,20.35
2018-09-01T12:07:22.974Z,20.83
2018-09-01T12:10:26.806Z,21.08
2018-09-01T12:13:30.630Z,21.17
2018-09-01T12:16:34.325Z,21.13
2018-09-01T12:19:37.989Z,20.89
2018-09-01T12:22:41.761Z,20.68
2018-09-01T12:25:45.479Z,20.46
2018-09-01T12:28:49.182Z,20.01
2018-09-01T12:31:52.860Z,20.25
2018-09-01T12:34:56.563Z,19.73
2018-09-01T12:38:00.231Z,19.72
2018-09-01T12:41:04.030Z,19.98
2018-09-01T12:44:07.883Z,20.03
2018-09-01T12:47:11.561Z,20.25
2018-09-01T12:50:15.258Z,20.22
2018-09-01T12:53:19.439Z,20.47
2018-09-01T12:56:23.150Z,20.54
2018-09-01T12:59:27.919Z,20.71
2018-09-01T13:02:31.924Z,20.75
2018-09-01T13:05:35.630Z,20.84
2018-09-01T13:08:39.324Z,21.42
2018-09-01T13:11:42.980Z,21.69
2018-09-01T13:14:46.693Z,21.46
2018-09-01T13:17:50.628Z,21.04
2018-09-01T13:20:54.401Z,20.88
2018-09-01T13:23:58.014Z,20.48
2018-09-01T13:27:01.687Z,20.79
2018-09-01T13:30:05.632Z,20.46
2018-09-01T13:33:09.405Z,20.39
2018-09-01T13:36:13.077Z,20.53
2018-09-01T13:39:16.833Z,20.51
2018-09-01T13:42:20.465Z,20.41
2018-09-01T13:45:24.232Z,20.48
2018-09-01T13:48:28.074Z,20.79
2018-09-01T13:51:31.810Z,21.09
2018-09-01T13:54:35.422Z,21.20
2018-09-01T13:57:39.140Z,21.29
2018-09-01T14:00:42.836Z,21.32
2018-09-01T14:03:46.516Z,21.14
2018-09-01T14:06:50.252Z,20.63
2018-09-01T14:09:53.922Z,20.44
2018-09-01T14:12:57.641Z,20.48
2018-09-01T14:16:01.312Z,20.54
2018-09-01T14:19:05.293Z,20.85
2018-09-01T14:22:08.984Z,21.31
2018-09-01T14:25:12.675Z,21.35
2018-09-01T14:28:16.457Z,21.34
2018-09-01T14:31:20.242Z,20.75
2018-09-01T14:34:23.963Z,20.55
2018-09-01T14:37:27.600Z,20.14
2018-09-01T14:40:31.429Z,19.94
2018-09-01T14:43:35.433Z,19.70
2018-09-01T14:46:39.236Z,19.62
2018-09-01T14:49:42.879Z,19.62
2018-09-01T14:52:47.846Z,19.57
2018-09-01T14:55:51.512Z,19.66
2018-09-01T14:58:55.353Z,19.70
2018-09-01T15:01:59.122Z,19.94
2018-09-01T15:05:02.886Z,20.04
2018-09-01T15:08:06.684Z,20.11
2018-09-01T15:11:10.409Z,20.11
2018-09-01T15:14:14.233Z,20.07
2018-09-01T15:17:17.866Z,20.12
2018-09-01T15:20:21.840Z,20.24
2018-09-01T15:23:25.821Z,20.36
2018-09-01T15:26:29.587Z,20.59
2018-09-01T15:29:33.317Z,20.83
2018-09-01T15:32:37.183Z,20.66
2018-09-01T15:35:40.760Z,20.72
2018-09-01T15:38:44.457Z,20.85
2018-09-01T15:41:48.243Z,20.86
2018-09-01T15:44:51.978Z,20.94
2018-09-01T15:47:55.976Z,21.29
2018-09-01T15:50:59.792Z,21.38
2018-09-01T15:54:03.593Z,21.54
2018-09-01T15:57:07.307Z,21.78
2018-09-01T16:00:11.085Z,21.61
2018-09-01T16:03:14.932Z,21.64
2018-09-01T16:06:18.617Z,21.34
2018-09-01T16:09:22.450Z,21.06
2018-09-01T16:12:26.072Z,20.99
2018-09-01T16:15:29.779Z,20.55
2018-09-01T16:18:33.455Z,20.36
2018-09-01T16:21:37.439Z,20.26
2018-09-01T16:24:41.266Z,20.24
2018-09-01T16:27:45.108Z,20.03
2018-09-01T16:30:48.859Z,20.01
2018-09-01T16:33:52.641Z,19.80
2018-09-01T16:36:56.482Z,19.76
2018-09-01T16:40:00.201Z,19.57
2018-09-01T16:43:03.936Z,19.43
2018-09-01T16:46:07.698Z,19.23
2018-09-01T16:49:11.348Z,19.13
2018-09-01T16:52:15.140Z,18.95
2018-09-01T16:55:18.795Z,18.85
2018-09-01T16:58:22.570Z,18.78
2018-09-01T17:01:26.293Z,18.59
2018-09-01T17:04:30.214Z,18.51
2018-09-01T17:07:34.218Z,18.48
2018-09-01T17:10:37.938Z,18.38
2018-09-01T17:13:41.703Z,18.29
2018-09-01T17:16:45.362Z,18.19
2018-09-01T17:19:48.990Z,18.15
2018-09-01T17:22:52.775Z,18.04
2018-09-01T17:25:56.467Z,17.94
2018-09-01T17:29:00.303Z,17.84
2018-09-01T17:32:04.131Z,17.81
2018-09-01T17:35:08.093Z,17.68
2018-09-01T17:38:11.689Z,17.60
2018-09-01T17:41:15.392Z,17.47
2018-09-01T17:44:19.170Z,17.36
2018-09-01T17:47:22.857Z,17.11
2018-09-01T17:50:26.571Z,16.90
2018-09-01T17:53:30.430Z,16.90
2018-09-01T17:56:34.278Z,16.95
2018-09-01T17:59:37.983Z,16.80
2018-09-01T18:02:41.652Z,16.58
2018-09-01T18:05:45.503Z,16.44
2018-09-01T18:08:49.317Z,16.39
2018-09-01T18:11:53.014Z,16.22
2018-09-01T18:14:56.768Z,16.18
2018-09-01T18:18:00.556Z,16.19
2018-09-01T18:21:04.358Z,16.21
2018-09-01T18:24:08.133Z,16.07
2018-09-01T18:27:11.948Z,16.00
2018-09-01T18:30:15.643Z,15.84
2018-09-01T18:33:19.356Z,15.76
2018-09-01T18:36:23.055Z,15.89
2018-09-01T18:39:26.860Z,16.01
2018-09-01T18:42:30.777Z,16.10
2018-09-01T18:45:34.492Z,16.11
2018-09-01T18:48:38.200Z,16.08
2018-09-01T18:51:41.994Z,16.01
2018-09-01T18:54:45.732Z,16.10
2018-09-01T18:57:49.490Z,16.04
2018-09-01T19:00:53.123Z,16.14
2018-09-01T19:03:56.892Z,16.06
2018-09-01T19:07:00.689Z,16.03
2018-09-01T19:10:04.468Z,15.97
2018-09-01T19:13:08.146Z,15.99
2018-09-01T19:16:11.944Z,15.87
2018-09-01T19:19:15.589Z,15.89
2018-09-01T19:22:19.335Z,15.96
2018-09-01T19:25:23.182Z,15.96
2018-09-01T19:28:26.857Z,15.99
2018-09-01T19:31:30.529Z,16.03
2018-09-01T19:34:34.235Z,16.01
2018-09-01T19:37:38.069Z,15.97
2018-09-01T19:40:41.972Z,15.99
2018-09-01T19:43:45.746Z,15.95
2018-09-01T19:46:49.426Z,15.88
2018-09-01T19:49:53.293Z,15.77
2018-09-01T19:52:57.171Z,15.74
2018-09-01T19:56:00.903Z,15.67
2018-09-01T19:59:04.844Z,15.69
2018-09-01T20:02:08.530Z,15.59
2018-09-01T20:05:12.309Z,15.55
2018-09-01T20:08:15.962Z,15.52
2018-09-01T20:11:19.878Z,15.56
2018-09-01T20:14:23.590Z,15.54
2018-09-01T20:17:27.531Z,15.54
2018-09-01T20:20:31.254Z,15.48
2018-09-01T20:23:34.995Z,15.59
2018-09-01T20:26:38.960Z,15.54
2018-09-01T20:29:42.703Z,15.47
2018-09-01T20:32:46.401Z,15.45
2018-09-01T20:35:55.209Z,15.33
2018-09-01T20:38:58.900Z,15.30
2018-09-01T20:42:02.677Z,15.27
2018-09-01T20:45:06.463Z,15.23
2018-09-01T20:48:11.018Z,15.14
2018-09-01T20:51:15.270Z,15.13
2018-09-01T20:54:18.892Z,15.09
2018-09-01T20:57:22.622Z,15.06
2018-09-01T21:00:26.346Z,15.03
2018-09-01T21:03:30.122Z,14.94
2018-09-01T21:06:33.840Z,14.80
2018-09-01T21:09:37.535Z,14.74
2018-09-01T21:12:41.128Z,14.70
2018-09-01T21:15:44.937Z,14.68
2018-09-01T21:18:48.572Z,14.56
2018-09-01T21:22:10.947Z,14.52
2018-09-01T21:25:15.552Z,14.45
2018-09-01T21:28:19.816Z,14.40
2018-09-01T21:31:24.317Z,14.37
2018-09-01T21:34:28.095Z,14.33
2018-09-01T21:37:31.859Z,14.38
2018-09-01T21:40:35.488Z,14.37
2018-09-01T21:43:39.228Z,14.32
2018-09-01T21:46:42.955Z,14.35
2018-09-01T21:49:46.944Z,14.37
2018-09-01T21:52:50.745Z,14.26
2018-09-01T21:55:55.105Z,14.19
2018-09-01T21:58:59.582Z,14.13
2018-09-01T22:02:08.647Z,14.12
2018-09-01T22:05:15.385Z,14.01
2018-09-01T22:08:19.092Z,13.94
2018-09-01T22:11:22.764Z,13.98
2018-09-01T22:14:26.532Z,13.93
2018-09-01T22:17:30.232Z,13.82
2018-09-01T22:20:34.176Z,13.79
2018-09-01T22:23:38.582Z,13.76
2018-09-01T22:26:42.232Z,13.71
2018-09-01T22:29:45.965Z,13.67
2018-09-01T22:32:49.839Z,13.62
2018-09-01T22:35:53.520Z,13.54
2018-09-01T22:38:57.281Z,13.58
2018-09-01T22:42:01.037Z,13.56
2018-09-01T22:45:04.957Z,13.60
2018-09-01T22:48:08.709Z,13.43
2018-09-01T22:51:12.415Z,13.19
2018-09-01T22:54:15.956Z,13.21
2018-09-01T22:57:19.938Z,13.02
2018-09-01T23:00:23.619Z,13.01
2018-09-01T23:03:27.369Z,13.03
2018-09-01T23:06:31.111Z,13.03
2018-09-01T23:09:34.792Z,13.01
2018-09-01T23:12:38.407Z,13.03
2018-09-01T23:15:42.100Z,13.10
2018-09-01T23:18:45.806Z,13.16
2018-09-01T23:21:49.490Z,13.19
2018-09-01T23:24:53.294Z,13.23
2018-09-01T23:27:57.101Z,13.20
2018-09-01T23:31:00.817Z,13.14
2018-09-01T23:34:04.527Z,13.15
2018-09-01T23:37:08.131Z,13.09
2018-09-01T23:40:11.761Z,13.07
2018-09-01T23:43:15.415Z,13.08
2018-09-01T23:46:19.068Z,13.12
2018-09-01T23:49:22.759Z,13.21
2018-09-01T23:52:26.450Z,13.21
2018-09-01T23:55:30.097Z,13.18
2018-09-01T23:58:33.735Z,13.18
